createdAt,value
2017-09-14T00:01:00.862Z,1.50
2017-09-14T00:03:29.145Z,1.67
2017-09-14T00:05:57.401Z,1.70
2017-09-14T00:08:25.658Z,2.03
2017-09-14T00:10:53.928Z,1.70
2017-09-14T00:13:22.217Z,1.73
2017-09-14T00:15:50.507Z,1.50
2017-09-14T00:18:18.781Z,1.50
2017-09-14T00:20:47.072Z,1.73
2017-09-14T00:23:15.388Z,1.87
2017-09-14T00:25:43.719Z,1.80
2017-09-14T00:28:11.984Z,1.60
2017-09-14T00:30:40.260Z,1.50
2017-09-14T00:45:52.182Z,1.50
2017-09-14T00:48:20.578Z,1.30
2017-09-14T00:50:57.682Z,1.20
2017-09-14T00:53:27.596Z,1.17
2017-09-14T00:55:57.740Z,1.53
2017-09-14T00:58:41.941Z,1.10
2017-09-14T01:01:27.699Z,1.13
2017-09-14T01:04:21.078Z,0.90
2017-09-14T01:06:49.559Z,1.47
2017-09-14T01:09:17.889Z,0.90
2017-09-14T01:11:46.161Z,0.90
2017-09-14T01:14:37.689Z,1.20
2017-09-14T01:17:05.988Z,1.10
2017-09-14T01:19:34.303Z,1.00
2017-09-14T01:22:03.335Z,1.00
2017-09-14T01:24:31.587Z,0.73
2017-09-14T01:27:00.930Z,0.90
2017-09-14T01:29:29.261Z,0.80
2017-09-14T01:31:57.595Z,1.20
2017-09-14T01:34:25.910Z,1.10
2017-09-14T01:36:54.943Z,0.87
2017-09-14T01:39:23.240Z,1.07
2017-09-14T01:41:51.675Z,0.90
2017-09-14T01:44:20.044Z,1.13
2017-09-14T01:46:48.378Z,0.80
2017-09-14T01:49:16.647Z,1.07
2017-09-14T01:51:46.730Z,0.93
2017-09-14T01:54:17.212Z,0.97
2017-09-14T01:56:49.076Z,1.07
2017-09-14T02:18:49.537Z,1.27
2017-09-14T02:34:59.938Z,1.40
2017-09-14T02:37:27.466Z,1.80
2017-09-14T02:39:55.020Z,1.30
2017-09-14T02:42:22.526Z,1.17
2017-09-14T02:44:49.971Z,1.60
2017-09-14T02:47:17.506Z,1.40
2017-09-14T02:49:45.028Z,1.27
2017-09-14T02:52:12.527Z,2.13
2017-09-14T02:54:39.966Z,1.00
2017-09-14T02:57:07.428Z,1.30
2017-09-14T02:59:34.880Z,1.80
2017-09-14T03:02:02.329Z,1.60
2017-09-14T03:04:29.810Z,1.83
2017-09-14T03:06:57.237Z,1.47
2017-09-14T03:09:24.742Z,2.03
2017-09-14T03:11:52.243Z,2.27
2017-09-14T03:14:19.710Z,1.37
2017-09-14T03:16:47.191Z,1.43
2017-09-14T03:19:14.704Z,2.53
2017-09-14T03:21:42.173Z,2.00
2017-09-14T03:24:10.968Z,1.73
2017-09-14T03:44:47.123Z,2.00
2017-09-14T03:50:08.563Z,1.97
2017-09-14T03:52:36.080Z,2.20
2017-09-14T03:55:03.584Z,1.80
2017-09-14T03:57:31.836Z,2.10
2017-09-14T04:08:49.506Z,1.60
2017-09-14T04:11:27.140Z,2.27
2017-09-14T04:13:54.694Z,2.00
2017-09-14T04:16:22.203Z,2.37
2017-09-14T04:18:49.730Z,2.17
2017-09-14T04:21:17.231Z,1.93
2017-09-14T04:23:45.554Z,1.90
2017-09-14T04:26:15.171Z,1.50
2017-09-14T04:28:44.384Z,2.33
2017-09-14T04:31:11.966Z,2.57
2017-09-14T04:33:39.530Z,2.13
2017-09-14T04:36:07.027Z,2.20
2017-09-14T04:38:35.289Z,2.13
2017-09-14T04:41:03.538Z,2.23
2017-09-14T04:43:31.078Z,1.90
2017-09-14T04:45:58.608Z,2.40
2017-09-14T04:48:26.064Z,1.90
2017-09-14T04:50:53.517Z,1.90
2017-09-14T04:53:21.000Z,2.53
2017-09-14T04:55:48.590Z,0.83
2017-09-14T04:58:16.046Z,3.00
2017-09-14T05:00:43.555Z,2.43
2017-09-14T05:03:10.998Z,3.50
2017-09-14T05:05:38.455Z,2.17
2017-09-14T05:08:05.907Z,3.00
2017-09-14T05:10:33.357Z,2.37
2017-09-14T05:13:01.586Z,1.53
2017-09-14T05:15:29.086Z,1.80
2017-09-14T05:17:57.308Z,3.20
2017-09-14T05:20:24.754Z,2.30
2017-09-14T05:22:52.274Z,2.63
2017-09-14T05:25:20.517Z,3.80
2017-09-14T05:27:47.983Z,2.40
2017-09-14T05:30:15.444Z,2.97
2017-09-14T05:32:42.926Z,3.33
2017-09-14T05:35:11.270Z,1.90
2017-09-14T05:37:38.810Z,3.33
2017-09-14T05:40:06.290Z,2.47
2017-09-14T05:42:33.750Z,2.53
2017-09-14T05:45:01.200Z,3.20
2017-09-14T05:47:28.731Z,3.10
2017-09-14T05:49:56.198Z,3.47
2017-09-14T05:52:23.753Z,2.97
2017-09-14T05:54:51.279Z,3.33
2017-09-14T05:57:18.827Z,3.67
2017-09-14T05:59:47.118Z,3.50
2017-09-14T06:02:14.660Z,3.23
2017-09-14T06:04:42.945Z,2.87
2017-09-14T06:07:10.489Z,3.27
2017-09-14T06:09:38.764Z,3.07
2017-09-14T06:12:07.024Z,1.30
2017-09-14T06:14:34.524Z,2.43
2017-09-14T06:17:02.037Z,1.30
2017-09-14T06:19:29.503Z,2.10
2017-09-14T06:21:57.001Z,2.20
2017-09-14T06:24:24.443Z,3.03
2017-09-14T06:26:51.896Z,2.50
2017-09-14T06:29:19.349Z,2.80
2017-09-14T06:31:47.567Z,2.43
2017-09-14T06:34:15.009Z,2.40
2017-09-14T06:36:42.470Z,2.63
2017-09-14T06:39:09.915Z,1.30
2017-09-14T06:41:37.374Z,2.20
2017-09-14T06:44:04.820Z,3.73
2017-09-14T06:46:32.276Z,2.30
2017-09-14T06:48:59.731Z,2.50
2017-09-14T06:51:27.179Z,2.03
2017-09-14T06:53:54.634Z,2.50
2017-09-14T06:56:22.158Z,1.57
2017-09-14T06:58:49.624Z,1.93
2017-09-14T07:01:17.125Z,1.50
2017-09-14T07:03:45.374Z,1.93
2017-09-14T07:06:12.881Z,1.43
2017-09-14T07:08:40.344Z,1.83
2017-09-14T07:11:07.810Z,1.90
2017-09-14T07:13:35.263Z,1.70
2017-09-14T07:16:02.706Z,1.93
2017-09-14T07:18:30.157Z,1.87
2017-09-14T07:20:57.602Z,1.50
2017-09-14T07:23:25.054Z,1.20
2017-09-14T07:25:52.503Z,1.97
2017-09-14T07:28:20.002Z,1.80
2017-09-14T07:30:47.444Z,1.60
2017-09-14T07:33:15.021Z,1.73
2017-09-14T07:35:42.483Z,1.57
2017-09-14T07:38:09.934Z,1.30
2017-09-14T07:40:37.382Z,1.20
2017-09-14T07:43:04.830Z,1.07
2017-09-14T07:45:32.273Z,0.80
2017-09-14T07:47:59.733Z,2.10
2017-09-14T07:50:27.204Z,1.90
2017-09-14T07:52:54.645Z,1.90
2017-09-14T07:55:22.162Z,1.83
2017-09-14T07:57:50.427Z,2.40
2017-09-14T08:00:18.651Z,1.40
2017-09-14T08:02:46.106Z,1.80
2017-09-14T08:05:13.584Z,1.08
2017-09-14T08:07:41.028Z,1.80
2017-09-14T08:10:08.474Z,1.23
2017-09-14T08:12:35.962Z,1.53
2017-09-14T08:15:03.414Z,2.17
2017-09-14T08:17:30.861Z,0.93
2017-09-14T08:19:58.315Z,0.97
2017-09-14T08:22:25.773Z,1.00
2017-09-14T08:24:53.222Z,1.83
2017-09-14T08:27:20.677Z,1.40
2017-09-14T08:29:48.136Z,0.97
2017-09-14T08:32:15.589Z,2.50
2017-09-14T08:34:43.041Z,1.93
2017-09-14T08:37:10.498Z,1.67
2017-09-14T08:39:37.940Z,1.60
2017-09-14T08:42:05.384Z,1.27
2017-09-14T08:44:32.841Z,1.33
2017-09-14T08:47:01.051Z,1.90
2017-09-14T08:49:28.507Z,1.17
2017-09-14T08:51:55.945Z,1.30
2017-09-14T08:54:23.396Z,1.53
2017-09-14T08:56:50.855Z,1.10
2017-09-14T08:59:18.312Z,1.00
2017-09-14T09:01:45.752Z,1.27
2017-09-14T09:04:14.011Z,0.80
2017-09-14T09:06:41.468Z,1.57
2017-09-14T09:09:08.952Z,1.10
2017-09-14T09:11:36.460Z,1.10
2017-09-14T09:14:03.924Z,1.43
2017-09-14T09:16:31.377Z,1.13
2017-09-14T09:18:58.832Z,1.20
2017-09-14T09:21:26.347Z,0.80
2017-09-14T09:23:53.831Z,1.03
2017-09-14T09:26:21.366Z,0.70
2017-09-14T09:28:48.842Z,0.90
2017-09-14T09:31:16.300Z,0.83
2017-09-14T09:33:43.898Z,1.10
2017-09-14T09:36:12.167Z,1.10
2017-09-14T09:38:39.643Z,1.13
2017-09-14T09:41:07.860Z,0.70
2017-09-14T09:43:35.305Z,1.00
2017-09-14T09:46:02.750Z,1.00
2017-09-14T09:48:30.248Z,0.80
2017-09-14T09:50:57.682Z,0.93
2017-09-14T09:53:25.138Z,1.00
2017-09-14T09:55:52.581Z,0.87
2017-09-14T09:58:20.034Z,0.90
2017-09-14T10:00:47.477Z,1.13
2017-09-14T10:03:14.938Z,1.43
2017-09-14T10:05:42.377Z,1.20
2017-09-14T10:08:10.599Z,0.93
2017-09-14T10:10:38.075Z,1.00
2017-09-14T10:13:05.542Z,1.33
2017-09-14T10:15:32.974Z,0.83
2017-09-14T10:18:00.425Z,0.77
2017-09-14T10:20:27.869Z,1.30
2017-09-14T10:22:55.319Z,1.10
2017-09-14T10:25:22.766Z,1.10
2017-09-14T10:27:50.209Z,1.17
2017-09-14T10:30:17.652Z,1.27
2017-09-14T10:32:45.863Z,1.30
2017-09-14T10:35:13.313Z,1.00
2017-09-14T10:37:40.748Z,1.33
2017-09-14T10:42:42.234Z,1.37
2017-09-14T10:45:09.678Z,1.00
2017-09-14T10:47:37.878Z,0.67
2017-09-14T10:50:05.336Z,1.00
2017-09-14T10:52:32.778Z,1.20
2017-09-14T10:55:00.222Z,0.83
2017-09-14T10:57:27.661Z,0.60
2017-09-14T10:59:55.884Z,0.83
2017-09-14T11:02:23.344Z,0.90
2017-09-14T11:04:50.788Z,1.00
2017-09-14T11:07:18.233Z,0.80
2017-09-14T11:09:45.683Z,1.10
2017-09-14T11:12:13.131Z,0.93
2017-09-14T11:14:41.345Z,0.97
2017-09-14T11:17:08.787Z,0.90
2017-09-14T11:19:36.247Z,1.23
2017-09-14T11:22:03.743Z,0.70
2017-09-14T11:24:31.239Z,0.80
2017-09-14T11:26:58.693Z,0.90
2017-09-14T11:29:26.197Z,1.50
2017-09-14T11:31:53.696Z,1.07
2017-09-14T11:34:21.924Z,0.90
2017-09-14T11:36:49.391Z,1.10
2017-09-14T11:39:16.883Z,0.80
2017-09-14T11:41:45.131Z,0.87
2017-09-14T11:44:12.580Z,1.07
2017-09-14T11:46:40.025Z,0.73
2017-09-14T11:49:08.251Z,1.00
2017-09-14T11:51:36.528Z,0.60
2017-09-14T11:54:04.774Z,0.60
2017-09-14T11:56:32.251Z,1.03
2017-09-14T11:58:59.777Z,1.13
2017-09-14T12:01:27.290Z,0.80
2017-09-14T12:03:54.759Z,0.70
2017-09-14T12:06:22.230Z,1.00
2017-09-14T12:08:49.709Z,0.87
2017-09-14T12:11:17.171Z,1.13
2017-09-14T12:13:44.636Z,1.00
2017-09-14T12:16:12.102Z,0.90
2017-09-14T12:18:39.583Z,1.43
2017-09-14T12:21:07.098Z,1.00
2017-09-14T12:23:34.555Z,1.10
2017-09-14T12:26:02.804Z,1.20
2017-09-14T12:28:30.252Z,0.93
2017-09-14T12:30:57.700Z,1.07
2017-09-14T12:33:25.160Z,1.00
2017-09-14T12:35:52.609Z,1.00
2017-09-14T12:38:20.048Z,0.97
2017-09-14T12:40:47.514Z,1.00
2017-09-14T12:43:14.966Z,0.83
2017-09-14T12:45:42.418Z,0.90
2017-09-14T12:48:10.629Z,1.00
2017-09-14T12:50:38.083Z,1.23
2017-09-14T12:53:05.527Z,0.80
2017-09-14T12:55:32.979Z,0.90
2017-09-14T12:58:00.423Z,0.83
2017-09-14T13:00:28.653Z,0.70
2017-09-14T13:02:56.093Z,0.90
2017-09-14T13:05:23.547Z,0.90
2017-09-14T13:07:50.995Z,0.87
2017-09-14T13:10:18.449Z,1.27
2017-09-14T13:12:45.907Z,1.00
2017-09-14T13:15:13.346Z,0.90
2017-09-14T13:17:40.794Z,1.30
2017-09-14T13:20:09.009Z,1.00
2017-09-14T13:22:36.466Z,1.30
2017-09-14T13:25:03.918Z,1.00
2017-09-14T13:27:31.372Z,0.97
2017-09-14T13:29:58.843Z,1.50
2017-09-14T13:32:26.289Z,1.00
2017-09-14T13:34:53.739Z,0.90
2017-09-14T13:37:21.187Z,1.13
2017-09-14T13:39:48.650Z,1.13
2017-09-14T13:42:16.102Z,0.80
2017-09-14T13:44:43.555Z,0.90
2017-09-14T13:47:11.003Z,0.90
2017-09-14T13:49:38.450Z,0.80
2017-09-14T13:52:05.893Z,1.03
2017-09-14T13:54:35.323Z,1.10
2017-09-14T13:57:02.864Z,1.10
2017-09-14T13:59:30.412Z,1.40
2017-09-14T14:01:57.899Z,1.13
2017-09-14T14:04:25.350Z,0.80
2017-09-14T14:06:52.787Z,1.10
2017-09-14T14:09:21.013Z,1.20
2017-09-14T14:11:48.451Z,0.70
2017-09-14T14:14:15.906Z,1.10
2017-09-14T14:16:43.348Z,1.10
2017-09-14T14:19:10.796Z,1.03
2017-09-14T14:21:39.001Z,0.87
2017-09-14T14:24:06.456Z,1.00
2017-09-14T14:26:33.893Z,0.90
2017-09-14T14:29:01.362Z,0.80
2017-09-14T14:31:28.809Z,0.70
2017-09-14T14:33:56.256Z,0.60
2017-09-14T14:36:23.743Z,0.60
2017-09-14T14:38:51.198Z,0.60
2017-09-14T14:41:19.429Z,0.60
2017-09-14T14:43:46.902Z,0.60
2017-09-14T14:46:14.375Z,0.50
2017-09-14T14:48:41.835Z,0.60
2017-09-14T14:51:09.313Z,0.63
2017-09-14T14:53:37.579Z,0.67
2017-09-14T14:56:05.906Z,0.90
2017-09-14T15:10:35.003Z,0.83
2017-09-14T15:13:03.894Z,0.93
2017-09-14T15:15:33.068Z,0.90
2017-09-14T15:18:02.217Z,0.77
2017-09-14T15:20:31.362Z,0.73
2017-09-14T15:23:00.483Z,0.70
2017-09-14T15:25:29.609Z,0.87
2017-09-14T15:27:58.781Z,0.80
2017-09-14T15:30:27.887Z,0.63
2017-09-14T15:32:57.001Z,0.70
2017-09-14T15:35:26.092Z,0.97
2017-09-14T15:37:55.193Z,1.00
2017-09-14T15:40:30.094Z,0.70
2017-09-14T15:43:04.886Z,0.80
2017-09-14T15:45:39.833Z,0.70
2017-09-14T15:48:14.698Z,0.90
2017-09-14T15:50:49.702Z,0.80
2017-09-14T15:53:18.796Z,0.70
2017-09-14T15:55:47.890Z,0.90
2017-09-14T15:58:16.990Z,0.83
2017-09-14T16:00:46.078Z,0.93
2017-09-14T16:03:15.174Z,1.00
2017-09-14T16:05:44.266Z,0.70
2017-09-14T16:08:13.371Z,0.70
2017-09-14T16:10:42.453Z,0.70
2017-09-14T16:13:11.554Z,0.70
2017-09-14T16:15:40.642Z,0.70
2017-09-14T16:18:09.759Z,0.63
2017-09-14T16:20:38.840Z,0.80
2017-09-14T16:23:07.945Z,0.63
2017-09-14T16:25:37.045Z,0.80
2017-09-14T16:28:06.140Z,0.87
2017-09-14T16:30:35.232Z,1.10
2017-09-14T16:33:04.326Z,1.10
2017-09-14T16:35:33.425Z,1.20
2017-09-14T16:38:02.521Z,1.00
2017-09-14T16:40:31.631Z,0.80
2017-09-14T16:43:00.726Z,1.10
2017-09-14T16:45:29.830Z,0.80
2017-09-14T16:47:58.925Z,1.00
2017-09-14T16:50:28.022Z,0.90
2017-09-14T16:52:57.112Z,0.90
2017-09-14T16:55:26.222Z,0.90
2017-09-14T16:57:55.320Z,0.70
2017-09-14T17:00:24.409Z,0.80
2017-09-14T17:02:53.506Z,1.00
2017-09-14T17:05:22.608Z,1.17
2017-09-14T17:07:51.704Z,1.00
2017-09-14T17:10:20.805Z,1.23
2017-09-14T17:12:49.906Z,1.30
2017-09-14T17:15:19.015Z,1.00
2017-09-14T17:17:48.110Z,0.90
2017-09-14T17:20:17.208Z,1.23
2017-09-14T17:22:46.309Z,0.80
2017-09-14T17:25:15.408Z,1.33
2017-09-14T17:27:44.505Z,1.20
2017-09-14T17:30:13.605Z,1.20
2017-09-14T17:32:42.699Z,0.80
2017-09-14T17:35:11.826Z,1.40
2017-09-14T17:37:40.921Z,1.10
2017-09-14T17:40:10.013Z,1.50
2017-09-14T17:59:56.698Z,5.60
2017-09-14T18:07:46.839Z,1.07
2017-09-14T18:10:15.120Z,1.03
2017-09-14T18:12:43.434Z,1.03
2017-09-14T18:15:11.704Z,0.93
2017-09-14T18:17:39.975Z,1.00
2017-09-14T18:20:09.061Z,1.20
2017-09-14T18:22:50.223Z,1.37
2017-09-14T18:25:41.031Z,0.90
2017-09-14T18:28:19.789Z,1.20
2017-09-14T18:30:48.057Z,1.00
2017-09-14T18:33:16.364Z,1.30
2017-09-14T18:35:45.457Z,1.10
2017-09-14T18:38:13.763Z,1.00
2017-09-14T18:40:42.041Z,1.33
2017-09-14T18:43:10.364Z,1.10
2017-09-14T18:45:38.719Z,0.90
2017-09-14T18:48:07.744Z,1.23
2017-09-14T18:50:35.992Z,1.37
2017-09-14T18:53:05.020Z,0.97
2017-09-14T18:55:33.274Z,1.37
2017-09-14T18:58:01.528Z,1.10
2017-09-14T19:00:30.547Z,0.80
2017-09-14T19:02:58.871Z,1.10
2017-09-14T19:05:27.122Z,0.90
2017-09-14T19:07:56.149Z,1.00
2017-09-14T19:10:24.391Z,1.57
2017-09-14T19:12:52.673Z,0.90
2017-09-14T19:15:20.920Z,1.12
2017-09-14T19:17:49.175Z,1.10
2017-09-14T19:20:18.328Z,0.93
2017-09-14T19:22:46.604Z,1.00
2017-09-14T19:25:14.880Z,1.23
2017-09-14T19:27:43.171Z,1.07
2017-09-14T19:30:11.473Z,1.03
2017-09-14T19:32:40.538Z,1.17
2017-09-14T19:35:08.839Z,1.20
2017-09-14T19:37:37.907Z,0.90
2017-09-14T19:40:06.199Z,1.00
2017-09-14T19:42:34.449Z,0.75
2017-09-14T19:45:02.706Z,0.90
2017-09-14T19:47:30.958Z,1.20
2017-09-14T19:49:59.218Z,0.80
2017-09-14T19:52:28.243Z,1.10
2017-09-14T19:54:56.504Z,1.10
2017-09-14T19:57:24.791Z,1.00
2017-09-14T19:59:53.131Z,1.10
2017-09-14T20:02:22.148Z,1.20
2017-09-14T20:04:50.431Z,1.00
2017-09-14T20:07:18.667Z,1.37
2017-09-14T20:09:47.687Z,1.63
2017-09-14T20:12:15.931Z,1.27
2017-09-14T20:14:44.200Z,1.33
2017-09-14T20:17:13.262Z,1.50
2017-09-14T20:19:41.536Z,1.73
2017-09-14T20:22:09.774Z,1.40
2017-09-14T20:24:38.789Z,1.70
2017-09-14T20:27:07.042Z,2.03
2017-09-14T20:29:36.044Z,2.20
2017-09-14T20:32:04.296Z,1.60
2017-09-14T20:34:39.776Z,2.27
2017-09-14T20:37:08.019Z,1.17
2017-09-14T20:39:37.026Z,1.50
2017-09-14T20:42:05.280Z,1.90
2017-09-14T20:44:33.515Z,1.27
2017-09-14T20:47:01.762Z,1.37
2017-09-14T20:49:30.020Z,2.00
2017-09-14T20:51:59.038Z,2.20
2017-09-14T20:54:27.290Z,1.53
2017-09-14T20:56:56.308Z,1.77
2017-09-14T20:59:24.585Z,1.20
2017-09-14T21:01:52.829Z,2.00
2017-09-14T21:04:21.948Z,1.77
2017-09-14T21:06:50.206Z,1.83
2017-09-14T21:09:19.236Z,1.87
2017-09-14T21:11:47.571Z,1.77
2017-09-14T21:14:16.749Z,2.40
2017-09-14T21:16:44.999Z,2.73
2017-09-14T21:19:13.247Z,1.73
2017-09-14T21:21:41.502Z,2.00
2017-09-14T21:24:10.514Z,2.07
2017-09-14T21:26:38.795Z,1.70
2017-09-14T21:29:07.053Z,1.90
2017-09-14T21:31:35.399Z,2.43
2017-09-14T21:34:03.656Z,2.23
2017-09-14T21:36:31.898Z,2.53
2017-09-14T21:39:00.942Z,2.37
2017-09-14T21:41:29.195Z,2.70
2017-09-14T21:43:57.448Z,1.90
2017-09-14T21:46:26.486Z,2.30
2017-09-14T21:48:54.761Z,2.57
2017-09-14T21:51:23.174Z,2.27
2017-09-14T21:53:51.488Z,3.17
2017-09-14T21:56:19.781Z,2.00
2017-09-14T21:58:48.075Z,2.30
2017-09-14T22:01:16.355Z,3.43
2017-09-14T22:03:44.643Z,1.10
2017-09-14T22:06:12.931Z,3.00
2017-09-14T22:08:41.243Z,2.53
2017-09-14T22:11:10.303Z,2.63
2017-09-14T22:13:38.607Z,2.47
2017-09-14T22:16:07.699Z,3.43
2017-09-14T22:18:36.763Z,2.80
2017-09-14T22:23:38.473Z,3.50
2017-09-14T22:26:06.806Z,3.40
2017-09-14T22:28:35.142Z,2.90
2017-09-14T22:31:03.463Z,2.37
2017-09-14T22:33:31.785Z,2.83
2017-09-14T22:36:00.049Z,2.20
2017-09-14T22:38:29.143Z,2.30
2017-09-14T22:40:58.205Z,3.03
2017-09-14T22:43:26.497Z,3.53
2017-09-14T22:45:54.780Z,2.90
2017-09-14T22:48:23.034Z,3.10
2017-09-14T22:50:51.348Z,3.60
2017-09-14T22:53:20.475Z,3.93
2017-09-14T22:55:48.823Z,3.47
2017-09-14T22:58:17.915Z,3.13
2017-09-14T23:00:47.030Z,2.70
2017-09-14T23:03:15.287Z,3.67
2017-09-14T23:05:44.295Z,3.60
2017-09-14T23:08:12.545Z,2.83
2017-09-14T23:10:41.556Z,2.43
2017-09-14T23:13:09.806Z,2.20
2017-09-14T23:15:38.051Z,2.40
2017-09-14T23:18:06.304Z,1.70
2017-09-14T23:20:34.544Z,2.50
2017-09-14T23:23:03.567Z,2.50
2017-09-14T23:25:31.819Z,2.40
2017-09-14T23:28:00.836Z,3.40
2017-09-14T23:30:29.088Z,3.07
2017-09-14T23:32:58.099Z,3.57
2017-09-14T23:35:26.341Z,2.70
2017-09-14T23:37:55.350Z,2.47
2017-09-14T23:40:24.362Z,2.67
2017-09-14T23:42:52.607Z,2.80
2017-09-14T23:45:21.617Z,2.50
2017-09-14T23:47:49.858Z,3.03
2017-09-14T23:50:18.110Z,2.63
2017-09-14T23:52:46.356Z,3.13
2017-09-14T23:55:14.612Z,3.43
2017-09-14T23:57:43.631Z,2.20
